Time;durP1;ratioP1;P1;durP2;ratioP2;P2;SDS_P1;SDS_P2;PMS_P1;PMS_P2;Temp;Humidity;BMP_temperature;BMP_pressure;BME280_temperature;BME280_humidity;BME280_pressure;Samples;Min_cycle;Max_cycle;Signal;HPM_P1;HPM_P2
2021/11/29 00:01:34;;;;;;;34.03;17.55;;;0.90;99.90;;;;;;5110426;28;20051;-65
2021/11/29 00:04:00;;;;;;;30.58;17.00;;;0.90;99.90;;;;;;5110312;28;20046;-64
2021/11/29 00:06:26;;;;;;;29.80;16.77;;;0.80;99.90;;;;;;5110553;28;20519;-64
2021/11/29 00:08:52;;;;;;;28.95;16.08;;;0.80;99.90;;;;;;5110508;28;20461;-64
2021/11/29 00:11:17;;;;;;;31.67;16.02;;;0.80;99.90;;;;;;5108890;28;20031;-63
2021/11/29 00:13:43;;;;;;;27.08;15.95;;;0.70;99.90;;;;;;5099440;28;20124;-65
2021/11/29 00:16:09;;;;;;;32.38;16.95;;;0.60;99.90;;;;;;5095620;28;20024;-64
2021/11/29 00:18:35;;;;;;;29.52;15.45;;;0.60;99.90;;;;;;5096440;28;20024;-64
2021/11/29 00:21:02;;;;;;;34.15;16.85;;;0.50;99.90;;;;;;5096903;28;20479;-64
2021/11/29 00:23:28;;;;;;;31.50;16.92;;;0.50;99.90;;;;;;5095350;28;20451;-64
2021/11/29 00:25:53;;;;;;;29.42;16.55;;;0.40;99.90;;;;;;5095691;28;20060;-64
2021/11/29 00:28:19;;;;;;;29.02;17.13;;;0.50;99.90;;;;;;5095388;28;20026;-64
2021/11/29 00:30:46;;;;;;;30.58;16.73;;;0.40;99.90;;;;;;5096786;28;20024;-64
2021/11/29 00:33:12;;;;;;;33.75;17.73;;;0.40;99.90;;;;;;5094870;28;20020;-64
2021/11/29 00:35:40;;;;;;;31.67;17.42;;;0.50;99.90;;;;;;5077930;28;20051;-64
2021/11/29 00:38:06;;;;;;;36.58;18.88;;;0.50;99.90;;;;;;5096067;28;20021;-64
2021/11/29 00:40:33;;;;;;;35.63;17.63;;;0.50;99.90;;;;;;5096547;28;20389;-64
2021/11/29 00:42:59;;;;;;;38.75;18.85;;;0.50;99.90;;;;;;5096468;28;20016;-64
2021/11/29 00:45:24;;;;;;;41.47;18.75;;;0.50;99.90;;;;;;5077813;28;20032;-64
2021/11/29 00:47:51;;;;;;;40.60;18.77;;;0.50;99.90;;;;;;5095459;28;20464;-64
2021/11/29 00:50:17;;;;;;;41.35;21.17;;;0.50;99.90;;;;;;5096380;28;20463;-64
2021/11/29 00:52:43;;;;;;;42.88;22.17;;;0.60;99.90;;;;;;5096348;28;20027;-64
2021/11/29 00:55:11;;;;;;;42.38;22.60;;;0.60;99.90;;;;;;5095770;28;20028;-64
2021/11/29 00:57:37;;;;;;;46.22;23.00;;;0.60;99.90;;;;;;5096265;28;20025;-63
2021/11/29 01:00:05;;;;;;;48.88;25.73;;;0.60;99.90;;;;;;5096231;28;20028;-64
2021/11/29 01:02:31;;;;;;;49.83;24.20;;;0.60;99.90;;;;;;5094271;28;20083;-64
2021/11/29 01:04:56;;;;;;;45.17;24.33;;;0.70;99.90;;;;;;5095160;28;20052;-63
2021/11/29 01:07:22;;;;;;;48.40;25.77;;;0.70;99.90;;;;;;5095506;28;20033;-65
2021/11/29 01:09:48;;;;;;;51.17;27.60;;;0.70;99.90;;;;;;5094207;28;20034;-65
2021/11/29 01:12:13;;;;;;;49.63;26.08;;;0.70;99.90;;;;;;5095972;28;20078;-65
2021/11/29 01:14:39;;;;;;;53.83;27.25;;;0.70;99.90;;;;;;5112038;27;20024;-64
2021/11/29 01:17:05;;;;;;;54.08;26.75;;;0.70;99.90;;;;;;5094045;28;20028;-64
2021/11/29 01:19:30;;;;;;;56.97;28.58;;;0.60;99.90;;;;;;5095265;28;20028;-65
2021/11/29 01:21:56;;;;;;;55.53;27.75;;;0.60;99.90;;;;;;5093933;28;20024;-64
2021/11/29 01:24:21;;;;;;;54.70;28.65;;;0.60;99.90;;;;;;5093939;28;20027;-65
2021/11/29 01:26:47;;;;;;;51.83;28.23;;;0.60;99.90;;;;;;5095493;28;20035;-65
2021/11/29 01:29:13;;;;;;;47.90;25.85;;;0.60;99.90;;;;;;5094491;28;20043;-65
2021/11/29 01:31:38;;;;;;;54.72;27.02;;;0.60;99.90;;;;;;5095309;28;20468;-63
2021/11/29 01:34:04;;;;;;;53.70;26.88;;;0.50;99.90;;;;;;5095252;28;20419;-64
2021/11/29 01:36:29;;;;;;;53.97;25.58;;;0.50;99.90;;;;;;5094979;28;20058;-63
2021/11/29 01:38:55;;;;;;;50.10;24.95;;;0.40;99.90;;;;;;5093970;28;20032;-65
2021/11/29 01:41:20;;;;;;;48.40;24.38;;;0.40;99.90;;;;;;5094319;28;20021;-64
2021/11/29 01:43:48;;;;;;;49.00;26.30;;;0.40;99.90;;;;;;5095366;28;20028;-65
2021/11/29 01:46:14;;;;;;;49.00;24.55;;;0.40;99.90;;;;;;5095297;28;20041;-66
2021/11/29 01:48:39;;;;;;;43.67;22.95;;;0.40;99.90;;;;;;5095285;28;20364;-66
2021/11/29 01:51:05;;;;;;;45.85;23.58;;;0.50;99.90;;;;;;5094966;28;20032;-64
2021/11/29 01:53:40;;;;;;;50.13;24.10;;;0.40;99.90;;;;;;5095194;28;20024;-65
2021/11/29 01:56:06;;;;;;;39.55;22.27;;;0.50;99.90;;;;;;5093945;28;20024;-64
2021/11/29 01:58:34;;;;;;;39.67;22.08;;;0.60;99.90;;;;;;5076535;28;20028;-66
2021/11/29 02:01:14;;;;;;;42.58;21.45;;;0.60;99.90;;;;;;5094461;28;20044;-64
2021/11/29 02:03:41;;;;;;;38.22;21.77;;;0.60;99.90;;;;;;5095008;28;20016;-64
2021/11/29 02:06:06;;;;;;;44.15;21.45;;;0.60;99.90;;;;;;5093514;28;20028;-65
2021/11/29 02:08:32;;;;;;;34.08;19.88;;;0.60;99.90;;;;;;5110437;28;20051;-64
2021/11/29 02:10:58;;;;;;;39.58;19.70;;;0.70;99.90;;;;;;5093427;28;20020;-64
2021/11/29 02:13:24;;;;;;;33.95;19.15;;;0.70;99.90;;;;;;5094829;28;20053;-64
2021/11/29 02:15:51;;;;;;;34.17;18.30;;;0.70;99.90;;;;;;5094779;28;20445;-66
2021/11/29 02:18:20;;;;;;;36.47;17.42;;;0.80;99.90;;;;;;5076247;28;20016;-66
2021/11/29 02:21:05;;;;;;;31.45;16.40;;;0.80;99.90;;;;;;5110179;28;20056;-66
2021/11/29 02:23:30;;;;;;;26.48;14.90;;;0.80;99.90;;;;;;5092931;28;20016;-65
2021/11/29 02:25:56;;;;;;;28.42;14.77;;;0.80;99.90;;;;;;5094622;28;20111;-65
2021/11/29 02:28:22;;;;;;;26.67;14.13;;;0.80;99.90;;;;;;5094572;28;20023;-66
2021/11/29 02:30:48;;;;;;;21.67;13.15;;;0.80;99.90;;;;;;5093971;28;20020;-65
2021/11/29 02:33:14;;;;;;;25.77;12.95;;;0.80;99.90;;;;;;5094245;28;20133;-66
2021/11/29 02:35:40;;;;;;;24.95;14.18;;;0.80;99.90;;;;;;5094208;28;20051;-65
2021/11/29 02:38:06;;;;;;;25.27;12.82;;;0.80;99.90;;;;;;5094429;28;20052;-65
2021/11/29 02:40:33;;;;;;;25.17;12.77;;;0.80;99.90;;;;;;5092990;28;20052;-63
2021/11/29 02:42:59;;;;;;;20.88;12.60;;;0.80;99.90;;;;;;5092833;28;20484;-65
2021/11/29 02:45:25;;;;;;;26.85;12.82;;;0.80;99.90;;;;;;5092495;28;20024;-64
2021/11/29 02:47:51;;;;;;;22.15;11.75;;;0.70;99.90;;;;;;5094343;28;20028;-65
2021/11/29 02:50:16;;;;;;;20.40;12.50;;;0.80;99.90;;;;;;5093252;28;20016;-65
2021/11/29 02:52:43;;;;;;;26.50;12.57;;;0.70;99.90;;;;;;5094219;28;20120;-65
2021/11/29 02:55:09;;;;;;;26.67;12.50;;;0.70;99.90;;;;;;5092799;28;20035;-65
2021/11/29 02:57:35;;;;;;;23.65;12.63;;;0.70;99.90;;;;;;5109883;28;20039;-65
2021/11/29 03:00:00;;;;;;;24.48;11.63;;;0.70;99.90;;;;;;5092947;28;20028;-65
2021/11/29 03:02:31;;;;;;;23.85;12.60;;;0.70;99.90;;;;;;5092281;28;20052;-65
2021/11/29 03:04:57;;;;;;;26.50;13.60;;;0.60;99.90;;;;;;5094099;28;20021;-65
2021/11/29 03:07:23;;;;;;;19.63;12.20;;;0.60;99.90;;;;;;5094101;28;20025;-65
2021/11/29 03:09:48;;;;;;;24.10;12.00;;;0.60;99.90;;;;;;5093090;28;20357;-65
2021/11/29 03:12:14;;;;;;;22.52;12.90;;;0.60;99.90;;;;;;5093779;28;20043;-64
2021/11/29 03:14:41;;;;;;;26.25;13.38;;;0.60;99.90;;;;;;5092590;28;20103;-65
2021/11/29 03:17:06;;;;;;;26.27;13.65;;;0.50;99.90;;;;;;5094024;28;20024;-65
2021/11/29 03:19:35;;;;;;;30.63;13.93;;;0.40;99.90;;;;;;5092846;28;20024;-65
2021/11/29 03:22:04;;;;;;;20.85;13.18;;;0.40;99.90;;;;;;5093620;28;20016;-66
2021/11/29 03:24:29;;;;;;;22.33;13.23;;;0.30;99.90;;;;;;5093684;28;20469;-64
2021/11/29 03:26:55;;;;;;;24.50;13.90;;;0.40;99.90;;;;;;5093377;28;20048;-64
2021/11/29 03:29:21;;;;;;;23.60;12.80;;;0.40;99.90;;;;;;5092439;28;20028;-65
2021/11/29 03:31:52;;;;;;;26.08;13.70;;;0.40;99.90;;;;;;5093884;28;20039;-65
2021/11/29 03:34:19;;;;;;;31.02;15.77;;;0.50;99.90;;;;;;5093861;28;20031;-65
2021/11/29 03:36:47;;;;;;;25.90;13.77;;;0.50;99.90;;;;;;5093572;28;20027;-65
2021/11/29 03:39:16;;;;;;;23.05;13.55;;;0.60;99.90;;;;;;5093293;28;20025;-65
2021/11/29 03:41:43;;;;;;;20.45;13.15;;;0.60;99.90;;;;;;5093758;28;20472;-65
2021/11/29 03:44:10;;;;;;;31.13;13.43;;;0.60;99.90;;;;;;5092310;28;20024;-66
2021/11/29 03:46:35;;;;;;;22.30;12.98;;;0.70;99.90;;;;;;5091918;28;20020;-65
2021/11/29 03:49:01;;;;;;;26.38;12.55;;;0.70;99.90;;;;;;5096194;28;20130;-65
2021/11/29 03:51:27;;;;;;;22.27;12.88;;;0.70;99.90;;;;;;5097289;28;20031;-64
2021/11/29 03:53:52;;;;;;;20.52;12.43;;;0.70;99.90;;;;;;5097253;28;20032;-65
2021/11/29 03:56:18;;;;;;;23.90;12.90;;;0.70;99.90;;;;;;5095675;28;20024;-64
2021/11/29 03:58:44;;;;;;;20.55;11.60;;;0.70;99.90;;;;;;5095987;28;20024;-65
2021/11/29 04:01:10;;;;;;;20.90;11.45;;;0.70;99.90;;;;;;5095553;28;20131;-65
2021/11/29 04:03:35;;;;;;;17.83;11.70;;;0.60;99.90;;;;;;5078637;28;20119;-65
2021/11/29 04:06:01;;;;;;;22.40;12.35;;;0.50;99.90;;;;;;5095855;28;20021;-65
2021/11/29 04:08:26;;;;;;;22.38;12.27;;;0.60;99.90;;;;;;5097233;28;20028;-65
2021/11/29 04:10:53;;;;;;;19.90;11.93;;;0.50;99.90;;;;;;5097207;28;20020;-65
2021/11/29 04:13:19;;;;;;;22.13;11.60;;;0.50;99.90;;;;;;5097162;28;20024;-65
2021/11/29 04:15:44;;;;;;;18.77;11.82;;;0.40;99.90;;;;;;5095238;28;20027;-65
2021/11/29 04:18:10;;;;;;;23.95;12.57;;;0.40;99.90;;;;;;5096784;28;20020;-65
2021/11/29 04:20:36;;;;;;;19.98;11.90;;;0.30;99.90;;;;;;5096970;28;20020;-65
2021/11/29 04:23:02;;;;;;;20.52;11.70;;;0.30;99.90;;;;;;5096624;28;20028;-65
2021/11/29 04:25:34;;;;;;;20.13;11.63;;;0.30;99.90;;;;;;5096885;28;20020;-65
2021/11/29 04:28:00;;;;;;;22.92;12.45;;;0.30;99.90;;;;;;5095821;28;20031;-65
2021/11/29 04:30:26;;;;;;;23.20;11.95;;;0.30;99.90;;;;;;5095628;28;20028;-64
2021/11/29 04:32:54;;;;;;;23.35;12.15;;;0.20;99.90;;;;;;5096792;28;20082;-65
2021/11/29 04:35:20;;;;;;;27.17;11.90;;;0.20;99.90;;;;;;5096714;28;20368;-64
2021/11/29 04:37:46;;;;;;;23.13;11.98;;;0.20;99.90;;;;;;5096642;28;20028;-66
2021/11/29 04:40:12;;;;;;;19.38;12.43;;;0.10;99.90;;;;;;5096646;28;20098;-65
2021/11/29 04:42:38;;;;;;;27.40;14.18;;;0.20;99.90;;;;;;5094794;28;20028;-65
2021/11/29 04:45:06;;;;;;;24.23;13.07;;;0.20;99.90;;;;;;5096550;28;20526;-66
2021/11/29 04:47:32;;;;;;;20.95;12.70;;;0.10;99.90;;;;;;5095044;28;20020;-65
2021/11/29 04:49:58;;;;;;;24.45;12.25;;;0.00;99.90;;;;;;5095834;28;20020;-66
2021/11/29 04:52:23;;;;;;;25.35;12.68;;;0.00;99.90;;;;;;5096136;28;20036;-65
2021/11/29 04:54:49;;;;;;;20.00;12.80;;;0.00;99.90;;;;;;5096886;28;20036;-66
2021/11/29 04:57:14;;;;;;;22.25;12.65;;;0.00;99.90;;;;;;5096282;28;20024;-64
2021/11/29 04:59:40;;;;;;;27.65;13.75;;;0.00;99.90;;;;;;5094676;28;20109;-65
2021/11/29 05:02:06;;;;;;;23.02;13.10;;;0.00;99.90;;;;;;5094303;28;20040;-66
2021/11/29 05:04:32;;;;;;;23.02;13.57;;;0.00;99.90;;;;;;5095892;28;20020;-65
2021/11/29 05:06:57;;;;;;;24.58;14.15;;;-0.10;99.90;;;;;;5077562;28;20435;-64
2021/11/29 05:09:23;;;;;;;21.85;12.30;;;-0.10;99.90;;;;;;5094273;28;20032;-65
2021/11/29 05:11:49;;;;;;;22.67;13.38;;;0.00;99.90;;;;;;5096000;28;20028;-65
2021/11/29 05:14:14;;;;;;;28.92;14.40;;;0.00;99.90;;;;;;5095960;28;20035;-64
2021/11/29 05:16:41;;;;;;;26.02;14.35;;;0.00;99.90;;;;;;5095895;28;20048;-65
2021/11/29 05:19:07;;;;;;;29.67;15.55;;;0.00;99.90;;;;;;5094397;28;20111;-65
2021/11/29 05:21:33;;;;;;;26.08;14.77;;;0.00;99.90;;;;;;5077099;28;20020;-64
2021/11/29 05:24:00;;;;;;;25.10;14.38;;;0.00;99.90;;;;;;5095526;28;20066;-64
2021/11/29 05:26:27;;;;;;;32.65;15.20;;;0.10;99.90;;;;;;5095424;28;20044;-65
2021/11/29 05:28:54;;;;;;;25.40;14.77;;;0.10;99.90;;;;;;5094222;28;20024;-64
2021/11/29 05:31:21;;;;;;;27.80;15.25;;;0.10;99.90;;;;;;5094619;28;20020;-63
2021/11/29 05:33:47;;;;;;;30.67;15.68;;;0.10;99.90;;;;;;5076916;28;20533;-65
2021/11/29 05:36:13;;;;;;;26.17;15.02;;;0.20;99.90;;;;;;5095579;28;20380;-63
2021/11/29 05:38:38;;;;;;;24.92;14.20;;;0.20;99.90;;;;;;5095533;28;20016;-65
2021/11/29 05:41:04;;;;;;;25.35;14.68;;;0.30;99.90;;;;;;5077260;28;20024;-63
2021/11/29 05:43:31;;;;;;;22.65;13.95;;;0.40;99.90;;;;;;5094008;28;20028;-65
2021/11/29 05:45:57;;;;;;;23.23;14.60;;;0.40;99.90;;;;;;5093571;28;20028;-65
2021/11/29 05:48:26;;;;;;;18.02;12.88;;;0.40;99.90;;;;;;5093921;28;20358;-65
2021/11/29 05:50:52;;;;;;;27.27;13.10;;;0.30;99.90;;;;;;5076512;28;20024;-65
2021/11/29 05:53:17;;;;;;;24.98;13.60;;;0.30;99.90;;;;;;5095211;28;20066;-65
2021/11/29 05:55:43;;;;;;;22.58;13.45;;;0.30;99.90;;;;;;5095178;28;20032;-65
2021/11/29 05:58:09;;;;;;;24.33;12.65;;;0.40;99.90;;;;;;5093345;28;20016;-65
2021/11/29 06:00:35;;;;;;;26.40;12.35;;;0.40;99.90;;;;;;5093265;28;20028;-66
2021/11/29 06:03:00;;;;;;;22.33;11.05;;;0.40;99.90;;;;;;5093350;28;20051;-65
2021/11/29 06:05:26;;;;;;;20.15;11.18;;;0.60;99.90;;;;;;5093309;28;20017;-64
2021/11/29 06:07:52;;;;;;;19.83;11.43;;;0.70;99.90;;;;;;5094976;28;20024;-65
2021/11/29 06:10:18;;;;;;;20.08;10.88;;;0.80;99.90;;;;;;5075870;28;20409;-64
2021/11/29 06:12:45;;;;;;;19.30;9.57;;;0.80;99.90;;;;;;5094682;28;20052;-64
2021/11/29 06:15:12;;;;;;;26.23;10.27;;;0.80;99.90;;;;;;5094566;28;20016;-64
2021/11/29 06:17:38;;;;;;;19.88;9.52;;;0.90;99.90;;;;;;5110505;28;20051;-64
2021/11/29 06:20:06;;;;;;;16.35;8.95;;;0.90;99.90;;;;;;5093286;28;20482;-65
2021/11/29 06:22:33;;;;;;;19.98;9.68;;;1.00;99.90;;;;;;5094652;28;20020;-64
2021/11/29 06:24:58;;;;;;;16.23;9.77;;;1.00;99.90;;;;;;5094057;28;20024;-64
2021/11/29 06:27:24;;;;;;;15.30;8.57;;;1.00;99.90;;;;;;5094326;28;20400;-64
2021/11/29 06:29:50;;;;;;;17.58;9.85;;;1.10;99.90;;;;;;5093443;28;20024;-64
2021/11/29 06:32:16;;;;;;;15.88;9.02;;;1.10;99.90;;;;;;5092840;28;20081;-65
2021/11/29 06:34:42;;;;;;;16.00;8.77;;;1.10;99.90;;;;;;5092666;28;20020;-65
2021/11/29 06:37:08;;;;;;;16.90;9.10;;;1.20;99.90;;;;;;5094206;28;20361;-65
2021/11/29 06:39:36;;;;;;;14.60;8.30;;;1.20;99.90;;;;;;5094435;28;20103;-65
2021/11/29 06:42:03;;;;;;;15.15;8.95;;;1.20;99.90;;;;;;5094409;28;20028;-65
2021/11/29 06:44:28;;;;;;;17.02;9.02;;;1.20;99.90;;;;;;5093409;28;20016;-66
2021/11/29 06:46:54;;;;;;;18.33;9.07;;;1.20;99.90;;;;;;5092919;28;20468;-65
2021/11/29 06:49:20;;;;;;;17.80;8.85;;;1.30;99.90;;;;;;5094297;28;20369;-66
2021/11/29 06:51:45;;;;;;;21.20;9.23;;;1.30;99.90;;;;;;5076434;28;20059;-65
2021/11/29 06:54:13;;;;;;;16.92;8.90;;;1.30;99.90;;;;;;5093763;28;20027;-65
2021/11/29 06:56:39;;;;;;;14.75;8.50;;;1.30;99.90;;;;;;5075995;28;20507;-65
2021/11/29 06:59:04;;;;;;;14.80;7.80;;;1.40;99.90;;;;;;5092592;28;20020;-65
2021/11/29 07:01:30;;;;;;;19.08;8.73;;;1.40;99.90;;;;;;5091971;28;20116;-65
2021/11/29 07:03:56;;;;;;;15.88;8.68;;;1.30;99.90;;;;;;5093141;28;20020;-65
2021/11/29 07:06:21;;;;;;;15.30;9.23;;;1.30;99.90;;;;;;5092699;28;20035;-65
2021/11/29 07:08:47;;;;;;;18.38;10.73;;;1.30;99.90;;;;;;5092614;28;20485;-65
2021/11/29 07:11:12;;;;;;;20.85;10.35;;;1.20;99.90;;;;;;5094046;28;20054;-65
2021/11/29 07:13:38;;;;;;;19.92;10.82;;;1.20;99.90;;;;;;5094024;28;20032;-64
2021/11/29 07:16:04;;;;;;;21.73;12.13;;;1.20;99.90;;;;;;5076187;28;20077;-65
2021/11/29 07:18:30;;;;;;;19.75;12.05;;;1.20;99.90;;;;;;5092106;28;20487;-65
2021/11/29 07:20:56;;;;;;;20.05;12.25;;;1.10;99.90;;;;;;5093355;28;20115;-66
2021/11/29 07:23:23;;;;;;;22.08;13.85;;;1.10;99.90;;;;;;5093625;28;20024;-65
2021/11/29 07:25:48;;;;;;;25.88;13.93;;;1.10;99.90;;;;;;5096431;28;20428;-65
2021/11/29 07:28:14;;;;;;;24.40;14.07;;;1.10;99.90;;;;;;5113657;27;20116;-65
2021/11/29 07:30:40;;;;;;;21.50;14.43;;;1.10;99.90;;;;;;5095995;28;20115;-65
2021/11/29 07:33:06;;;;;;;24.27;15.60;;;1.10;99.90;;;;;;5096442;28;20032;-65
2021/11/29 07:35:32;;;;;;;29.95;15.95;;;1.10;99.90;;;;;;5096438;28;20016;-64
2021/11/29 07:37:58;;;;;;;27.90;16.33;;;1.10;99.90;;;;;;5097734;28;20023;-64
2021/11/29 07:40:28;;;;;;;27.05;17.27;;;1.10;99.90;;;;;;5097492;28;20020;-65
2021/11/29 07:42:55;;;;;;;31.55;18.48;;;1.10;99.90;;;;;;5096055;28;20141;-64
2021/11/29 07:45:21;;;;;;;33.63;18.63;;;1.10;99.90;;;;;;5096440;28;20020;-64
2021/11/29 07:47:47;;;;;;;33.17;18.67;;;1.10;99.90;;;;;;5097135;28;20476;-64
2021/11/29 07:50:15;;;;;;;36.17;19.48;;;1.10;99.90;;;;;;5096421;28;20020;-64
2021/11/29 07:52:42;;;;;;;38.45;19.63;;;1.10;99.90;;;;;;5121413;27;20036;-64
2021/11/29 07:55:11;;;;;;;33.58;19.75;;;1.10;99.90;;;;;;5116502;28;20019;-65
2021/11/29 07:57:38;;;;;;;37.15;21.25;;;1.10;99.90;;;;;;5116801;28;20027;-64
2021/11/29 08:00:06;;;;;;;31.98;20.98;;;1.20;99.90;;;;;;5117668;28;20045;-63
2021/11/29 08:02:33;;;;;;;31.02;20.17;;;1.20;99.90;;;;;;5099742;28;20473;-63
2021/11/29 08:04:59;;;;;;;37.83;20.55;;;1.20;99.90;;;;;;5095016;28;20477;-64
2021/11/29 08:07:24;;;;;;;42.50;20.85;;;1.20;99.90;;;;;;5075452;28;20028;-65
2021/11/29 08:09:50;;;;;;;32.70;20.42;;;1.20;99.90;;;;;;5094757;28;20035;-65
2021/11/29 08:12:16;;;;;;;38.40;20.35;;;1.30;99.90;;;;;;5101838;28;20053;-65
2021/11/29 08:14:41;;;;;;;31.02;19.42;;;1.30;99.90;;;;;;5104248;28;20024;-64
2021/11/29 08:17:07;;;;;;;33.17;18.30;;;1.40;99.90;;;;;;5095539;28;20055;-65
2021/11/29 08:19:33;;;;;;;29.52;18.30;;;1.40;99.90;;;;;;5093224;28;20111;-65
2021/11/29 08:21:58;;;;;;;32.22;18.52;;;1.40;99.90;;;;;;5094589;28;20036;-65
2021/11/29 08:24:24;;;;;;;32.33;17.98;;;1.50;99.90;;;;;;5096126;28;20059;-65
2021/11/29 08:26:50;;;;;;;33.63;19.05;;;1.50;99.90;;;;;;5068050;28;20032;-65
2021/11/29 08:29:15;;;;;;;29.90;17.48;;;1.50;99.90;;;;;;5080965;28;20052;-65
2021/11/29 08:31:41;;;;;;;30.95;18.30;;;1.60;99.90;;;;;;5094714;28;20115;-64
2021/11/29 08:34:07;;;;;;;33.08;17.38;;;1.60;99.90;;;;;;5094710;28;20028;-64
2021/11/29 08:36:34;;;;;;;31.13;17.67;;;1.60;99.90;;;;;;5094647;28;20478;-64
2021/11/29 08:39:00;;;;;;;31.95;16.23;;;1.60;99.90;;;;;;5098612;28;20024;-64
2021/11/29 08:41:27;;;;;;;30.23;17.42;;;1.60;99.90;;;;;;5115528;28;20027;-64
2021/11/29 08:43:52;;;;;;;26.20;16.10;;;1.60;99.90;;;;;;5116594;28;20547;-64
2021/11/29 08:46:18;;;;;;;26.33;17.52;;;1.60;99.90;;;;;;5101653;28;20152;-64
2021/11/29 08:48:45;;;;;;;27.05;16.85;;;1.70;99.90;;;;;;5094829;28;20028;-64
2021/11/29 08:51:11;;;;;;;28.27;15.95;;;1.70;99.90;;;;;;5095996;28;20429;-64
2021/11/29 08:53:38;;;;;;;25.90;15.82;;;1.70;99.90;;;;;;5094408;28;20082;-64
2021/11/29 08:56:04;;;;;;;25.60;15.48;;;1.70;99.90;;;;;;5095759;28;20487;-65
2021/11/29 08:58:30;;;;;;;23.90;15.52;;;1.70;99.90;;;;;;5095557;28;20028;-64
2021/11/29 09:00:56;;;;;;;26.17;16.57;;;1.80;99.90;;;;;;5094441;28;20043;-65
2021/11/29 09:03:23;;;;;;;23.40;16.10;;;1.80;99.90;;;;;;5094199;28;20461;-63
2021/11/29 09:05:49;;;;;;;21.95;14.95;;;1.80;99.90;;;;;;5094224;28;20133;-63
2021/11/29 09:08:16;;;;;;;23.48;14.98;;;1.80;99.90;;;;;;5093886;28;20028;-63
2021/11/29 09:10:44;;;;;;;22.55;14.38;;;1.80;99.90;;;;;;5095536;28;20020;-63
2021/11/29 09:13:10;;;;;;;23.73;14.75;;;1.90;99.90;;;;;;5094424;28;20066;-63
2021/11/29 09:15:38;;;;;;;28.50;14.88;;;1.90;99.90;;;;;;5065152;28;20449;-64
2021/11/29 09:18:04;;;;;;;28.70;15.20;;;1.90;99.90;;;;;;5090936;28;20052;-64
2021/11/29 09:20:30;;;;;;;20.23;14.45;;;2.00;99.90;;;;;;5089557;28;20028;-62
2021/11/29 09:22:56;;;;;;;23.05;14.30;;;2.00;99.90;;;;;;5094457;28;20032;-64
2021/11/29 09:25:23;;;;;;;23.98;14.52;;;2.10;99.90;;;;;;5095651;28;20020;-65
2021/11/29 09:27:49;;;;;;;25.75;14.73;;;2.10;99.90;;;;;;5094268;28;20012;-64
2021/11/29 09:30:18;;;;;;;29.65;14.40;;;2.00;99.90;;;;;;5076840;28;20389;-65
2021/11/29 09:32:43;;;;;;;20.98;14.18;;;2.00;99.90;;;;;;5093400;28;20024;-65
2021/11/29 09:35:11;;;;;;;21.75;13.90;;;2.00;99.90;;;;;;5093982;28;20031;-65
2021/11/29 09:37:38;;;;;;;22.45;13.93;;;2.00;99.90;;;;;;5077067;28;20043;-65
2021/11/29 09:40:06;;;;;;;22.48;13.75;;;2.00;99.90;;;;;;5092889;28;20072;-65
2021/11/29 09:42:33;;;;;;;24.90;14.57;;;2.10;99.90;;;;;;5094814;28;20038;-65
2021/11/29 09:45:00;;;;;;;21.35;14.23;;;2.10;99.90;;;;;;5093158;28;20169;-65
2021/11/29 09:47:25;;;;;;;20.42;13.70;;;2.10;99.90;;;;;;5092623;28;20477;-64
2021/11/29 09:49:55;;;;;;;30.17;15.50;;;2.10;99.90;;;;;;5094800;28;20035;-65
2021/11/29 09:52:22;;;;;;;24.13;14.38;;;2.10;99.90;;;;;;5093584;28;20098;-65
2021/11/29 09:54:48;;;;;;;20.45;14.05;;;2.20;99.90;;;;;;5076302;28;20447;-65
2021/11/29 09:57:14;;;;;;;28.25;14.07;;;2.20;99.90;;;;;;5094121;28;20062;-65
2021/11/29 09:59:40;;;;;;;22.85;14.05;;;2.20;99.90;;;;;;5094163;28;20056;-65
2021/11/29 10:02:12;;;;;;;27.23;13.90;;;2.20;99.90;;;;;;5068335;28;20083;-65
2021/11/29 10:04:37;;;;;;;20.38;12.93;;;2.30;99.90;;;;;;5074548;28;20024;-64
2021/11/29 10:07:03;;;;;;;25.17;13.80;;;2.20;99.90;;;;;;5056042;28;20078;-65
2021/11/29 10:09:34;;;;;;;21.58;13.77;;;2.30;99.90;;;;;;5074176;28;20046;-65
2021/11/29 10:15:20;;;;;;;21.92;11.05;;;2.40;99.90;;;;;;5112045;27;20314;-64
2021/11/29 10:17:47;;;;;;;18.38;11.63;;;2.40;99.90;;;;;;5110005;28;20473;-64
2021/11/29 10:20:13;;;;;;;22.23;12.07;;;2.40;99.90;;;;;;5092948;28;20032;-64
2021/11/29 10:22:39;;;;;;;18.30;10.77;;;2.50;99.90;;;;;;5111223;28;20469;-64
2021/11/29 10:25:15;;;;;;;19.70;12.13;;;2.50;99.90;;;;;;5109967;28;20024;-65
2021/11/29 10:27:42;;;;;;;18.48;11.38;;;2.50;99.90;;;;;;5123871;28;20527;-65
2021/11/29 10:30:09;;;;;;;22.45;11.40;;;2.50;99.90;;;;;;5091136;28;20021;-65
2021/11/29 10:32:40;;;;;;;17.75;11.18;;;2.50;99.90;;;;;;5109260;28;20376;-64
2021/11/29 10:35:08;;;;;;;22.08;12.07;;;2.50;99.90;;;;;;5093447;28;20043;-64
2021/11/29 10:37:37;;;;;;;19.85;11.38;;;2.50;99.90;;;;;;5109418;28;20031;-64
2021/11/29 10:40:14;;;;;;;25.88;12.65;;;2.50;99.90;;;;;;5109973;28;20485;-64
2021/11/29 10:42:40;;;;;;;22.88;12.80;;;2.50;99.90;;;;;;5111291;28;20031;-64
2021/11/29 10:45:07;;;;;;;22.00;12.40;;;2.60;99.90;;;;;;5109865;28;20518;-65
2021/11/29 10:47:34;;;;;;;24.00;12.98;;;2.70;99.90;;;;;;5109173;28;20103;-64
2021/11/29 10:50:04;;;;;;;25.38;12.30;;;2.60;99.90;;;;;;5108837;28;20518;-64
2021/11/29 10:52:33;;;;;;;22.55;12.70;;;2.70;99.90;;;;;;5110837;28;20105;-64
2021/11/29 10:54:59;;;;;;;27.95;14.15;;;2.60;99.90;;;;;;5110619;28;20117;-64
2021/11/29 10:57:26;;;;;;;23.08;13.75;;;2.70;99.90;;;;;;5111093;28;20027;-65
2021/11/29 10:59:54;;;;;;;27.50;12.88;;;2.70;99.90;;;;;;5109498;28;20032;-65
2021/11/29 11:02:25;;;;;;;30.80;14.55;;;2.70;99.90;;;;;;5110216;28;20043;-64
2021/11/29 11:05:09;;;;;;;30.27;13.32;;;2.70;99.90;;;;;;5109947;28;20028;-65
2021/11/29 11:07:37;;;;;;;27.52;13.35;;;2.70;99.90;;;;;;5109728;28;20028;-65
2021/11/29 11:10:09;;;;;;;26.17;14.50;;;2.70;99.90;;;;;;5092159;28;20034;-65
2021/11/29 11:12:36;;;;;;;29.00;14.50;;;2.70;99.90;;;;;;5110253;28;20024;-65
2021/11/29 11:15:08;;;;;;;24.40;14.68;;;2.70;99.90;;;;;;5109358;28;20028;-64
2021/11/29 11:17:35;;;;;;;23.73;10.43;;;2.70;99.90;;;;;;5109601;28;20016;-64
2021/11/29 11:20:05;;;;;;;31.70;13.77;;;2.70;99.90;;;;;;5109763;28;20495;-65
2021/11/29 11:22:36;;;;;;;25.02;14.00;;;2.80;99.90;;;;;;5108750;28;20112;-64
2021/11/29 11:25:07;;;;;;;27.95;13.30;;;2.80;99.90;;;;;;5080301;28;20124;-65
2021/11/29 11:27:36;;;;;;;30.27;14.57;;;2.80;99.90;;;;;;5084642;28;20039;-65
2021/11/29 11:30:07;;;;;;;27.38;14.90;;;2.80;99.90;;;;;;5094942;28;20020;-65
2021/11/29 11:32:36;;;;;;;25.40;13.82;;;2.90;99.90;;;;;;5096703;28;20025;-65
2021/11/29 11:35:08;;;;;;;30.23;13.93;;;2.80;99.90;;;;;;5095247;28;20392;-65
2021/11/29 11:37:44;;;;;;;39.50;14.48;;;2.80;99.90;;;;;;5096212;28;20039;-65
2021/11/29 11:40:16;;;;;;;28.38;14.18;;;2.80;99.90;;;;;;5095185;28;20046;-65
2021/11/29 11:42:42;;;;;;;31.50;14.68;;;2.80;99.90;;;;;;5096560;28;20377;-65
2021/11/29 11:45:11;;;;;;;34.65;16.70;;;2.80;99.90;;;;;;5094818;28;20016;-65
2021/11/29 11:47:37;;;;;;;42.13;16.33;;;2.80;99.90;;;;;;5095104;28;20064;-65
2021/11/29 11:50:06;;;;;;;29.33;15.57;;;2.80;99.90;;;;;;5094399;28;20016;-65
2021/11/29 11:52:33;;;;;;;38.97;16.35;;;2.90;99.90;;;;;;5094565;28;20058;-65
2021/11/29 11:55:01;;;;;;;36.80;16.55;;;2.90;99.90;;;;;;5095384;28;20047;-65
2021/11/29 11:57:28;;;;;;;32.05;16.50;;;2.80;99.90;;;;;;5094321;28;20039;-65
2021/11/29 12:00:33;;;;;;;32.53;16.27;;;2.90;99.90;;;;;;5078136;28;20027;-65
2021/11/29 12:03:05;;;;;;;38.40;13.93;;;2.90;99.90;;;;;;5094057;28;20480;-65
2021/11/29 12:05:34;;;;;;;30.20;14.25;;;3.00;99.90;;;;;;5094471;28;20032;-65
2021/11/29 12:08:02;;;;;;;30.23;15.10;;;3.00;99.90;;;;;;5095022;28;20376;-65
2021/11/29 12:13:11;;;;;;;27.60;13.30;;;3.10;99.90;;;;;;5165596;27;20168;-64
2021/11/29 12:15:46;;;;;;;28.00;12.73;;;3.10;99.90;;;;;;5142788;27;20031;-64
2021/11/29 12:18:34;;;;;;;24.73;12.52;;;3.10;99.90;;;;;;5139470;27;20030;-64
2021/11/29 12:32:06;;;;;;;26.33;12.23;;;3.10;99.90;;;;;;5112181;27;20294;-65
2021/11/29 12:34:54;;;;;;;21.92;11.50;;;3.20;99.90;;;;;;5111618;28;20526;-65
2021/11/29 12:37:23;;;;;;;20.75;11.02;;;3.20;99.90;;;;;;5109889;28;20024;-65
2021/11/29 12:39:55;;;;;;;25.75;10.18;;;3.20;99.90;;;;;;5110298;28;20096;-65
2021/11/29 12:45:07;;;;;;;15.93;9.77;;;3.20;99.90;;;;;;5111281;27;20660;-65
2021/11/29 12:47:51;;;;;;;21.70;9.60;;;3.30;99.90;;;;;;5109828;28;20031;-65
2021/11/29 12:50:43;;;;;;;17.27;9.20;;;3.30;99.90;;;;;;5110927;28;20031;-65
2021/11/29 12:53:33;;;;;;;21.77;10.10;;;3.30;99.90;;;;;;5110710;28;20020;-65
2021/11/29 12:59:00;;;;;;;17.45;9.23;;;3.30;99.90;;;;;;5111402;27;20392;-65
2021/11/29 13:01:32;;;;;;;15.20;8.20;;;3.40;99.90;;;;;;5109718;28;20058;-65